sensor_id;sensor_type;location;lat;lon;timestamp;pressure;altitude;pressure_sealevel;temperature;humidity
51603;BME280;37954;51.980;5.850;2023-04-07T00:01:03;101043.22;;;9.34;97.42
51603;BME280;37954;51.980;5.850;2023-04-07T00:05:15;101066.06;;;9.43;97.95
51603;BME280;37954;51.980;5.850;2023-04-07T00:09:26;101075.38;;;9.47;97.84
51603;BME280;37954;51.980;5.850;2023-04-07T00:13:38;101051.25;;;9.34;98.39
51603;BME280;37954;51.980;5.850;2023-04-07T00:17:50;101073.09;;;9.44;98.26
51603;BME280;37954;51.980;5.850;2023-04-07T00:22:02;101077.41;;;9.45;98.59
51603;BME280;37954;51.980;5.850;2023-04-07T00:26:14;101083.19;;;9.49;98.59
51603;BME280;37954;51.980;5.850;2023-04-07T00:30:27;101069.16;;;9.40;98.84
51603;BME280;37954;51.980;5.850;2023-04-07T00:34:39;101087.94;;;9.47;98.72
51603;BME280;37954;51.980;5.850;2023-04-07T00:38:51;101077.63;;;9.43;99.07
51603;BME280;37954;51.980;5.850;2023-04-07T00:43:03;101073.91;;;9.45;98.76
51603;BME280;37954;51.980;5.850;2023-04-07T00:47:14;101050.63;;;9.25;98.75
51603;BME280;37954;51.980;5.850;2023-04-07T00:51:27;101058.66;;;9.32;99.07
51603;BME280;37954;51.980;5.850;2023-04-07T00:55:38;101079.06;;;9.39;99.00
51603;BME280;37954;51.980;5.850;2023-04-07T00:59:51;101086.69;;;9.36;99.07
51603;BME280;37954;51.980;5.850;2023-04-07T01:04:04;101097.84;;;9.46;99.40
51603;BME280;37954;51.980;5.850;2023-04-07T01:12:49;101088.56;;;9.42;99.19
51603;BME280;37954;51.980;5.850;2023-04-07T01:17:06;101057.03;;;9.18;98.82
51603;BME280;37954;51.980;5.850;2023-04-07T01:21:21;101081.34;;;9.29;98.86
51603;BME280;37954;51.980;5.850;2023-04-07T01:30:09;101076.00;;;9.16;99.25
51603;BME280;37954;51.980;5.850;2023-04-07T01:34:23;101052.47;;;9.12;99.01
51603;BME280;37954;51.980;5.850;2023-04-07T01:38:36;101078.88;;;9.21;99.43
51603;BME280;37954;51.980;5.850;2023-04-07T01:42:49;101061.34;;;9.05;99.32
51603;BME280;37954;51.980;5.850;2023-04-07T01:47:02;101077.84;;;9.16;99.17
51603;BME280;37954;51.980;5.850;2023-04-07T01:51:15;101069.38;;;9.05;99.44
51603;BME280;37954;51.980;5.850;2023-04-07T01:55:29;101090.84;;;9.12;99.52
51603;BME280;37954;51.980;5.850;2023-04-07T01:59:48;101085.25;;;9.07;99.16
51603;BME280;37954;51.980;5.850;2023-04-07T02:08:38;101067.31;;;8.94;99.29
51603;BME280;37954;51.980;5.850;2023-04-07T02:12:53;101065.00;;;8.85;99.26
51603;BME280;37954;51.980;5.850;2023-04-07T02:17:06;101100.69;;;9.05;98.96
51603;BME280;37954;51.980;5.850;2023-04-07T02:21:18;101091.22;;;8.96;99.26
51603;BME280;37954;51.980;5.850;2023-04-07T02:25:31;101092.44;;;8.93;99.13
51603;BME280;37954;51.980;5.850;2023-04-07T02:29:43;101107.09;;;9.04;99.12
51603;BME280;37954;51.980;5.850;2023-04-07T02:33:54;101093.50;;;8.99;99.22
51603;BME280;37954;51.980;5.850;2023-04-07T02:38:06;101097.63;;;8.95;99.27
51603;BME280;37954;51.980;5.850;2023-04-07T02:42:19;101080.69;;;8.88;99.44
51603;BME280;37954;51.980;5.850;2023-04-07T02:46:32;101115.16;;;9.11;99.28
51603;BME280;37954;51.980;5.850;2023-04-07T02:50:44;101092.66;;;9.05;99.19
51603;BME280;37954;51.980;5.850;2023-04-07T02:54:56;101097.59;;;9.01;99.22
51603;BME280;37954;51.980;5.850;2023-04-07T02:59:10;101113.69;;;9.08;98.97
51603;BME280;37954;51.980;5.850;2023-04-07T03:03:26;101105.03;;;9.06;99.32
51603;BME280;37954;51.980;5.850;2023-04-07T03:07:46;101109.78;;;9.04;98.91
51603;BME280;37954;51.980;5.850;2023-04-07T03:11:59;101109.56;;;8.99;98.88
51603;BME280;37954;51.980;5.850;2023-04-07T03:16:15;101109.56;;;8.99;99.13
51603;BME280;37954;51.980;5.850;2023-04-07T03:20:39;101124.41;;;9.08;99.23
51603;BME280;37954;51.980;5.850;2023-04-07T03:24:55;101112.44;;;9.04;99.10
51603;BME280;37954;51.980;5.850;2023-04-07T03:29:08;101117.59;;;9.05;99.01
51603;BME280;37954;51.980;5.850;2023-04-07T03:33:21;101106.91;;;8.99;99.00
51603;BME280;37954;51.980;5.850;2023-04-07T03:37:33;101107.72;;;8.99;99.11
51603;BME280;37954;51.980;5.850;2023-04-07T03:41:45;101071.84;;;8.81;98.86
51603;BME280;37954;51.980;5.850;2023-04-07T03:45:57;101095.34;;;8.98;98.80
51603;BME280;37954;51.980;5.850;2023-04-07T03:50:09;101092.88;;;8.97;99.13
51603;BME280;37954;51.980;5.850;2023-04-07T03:54:32;101109.38;;;9.07;99.26
51603;BME280;37954;51.980;5.850;2023-04-07T03:58:46;101121.97;;;9.13;98.83
51603;BME280;37954;51.980;5.850;2023-04-07T04:03:07;101113.91;;;9.06;99.12
51603;BME280;37954;51.980;5.850;2023-04-07T04:07:25;101126.69;;;9.11;99.17
51603;BME280;37954;51.980;5.850;2023-04-07T04:11:41;101107.09;;;8.97;99.17
51603;BME280;37954;51.980;5.850;2023-04-07T04:15:52;101117.63;;;8.99;99.37
51603;BME280;37954;51.980;5.850;2023-04-07T04:20:05;101131.63;;;9.07;99.03
51603;BME280;37954;51.980;5.850;2023-04-07T04:24:30;101133.72;;;9.12;99.23
51603;BME280;37954;51.980;5.850;2023-04-07T04:28:45;101142.56;;;9.19;99.16
51603;BME280;37954;51.980;5.850;2023-04-07T04:32:58;101124.22;;;9.10;99.15
51603;BME280;37954;51.980;5.850;2023-04-07T04:37:20;101140.13;;;9.18;99.29
51603;BME280;37954;51.980;5.850;2023-04-07T04:41:32;101140.91;;;9.18;99.36
51603;BME280;37954;51.980;5.850;2023-04-07T04:45:45;101148.56;;;9.21;98.98
51603;BME280;37954;51.980;5.850;2023-04-07T04:49:59;101149.78;;;9.19;99.15
51603;BME280;37954;51.980;5.850;2023-04-07T04:54:14;101147.94;;;9.13;98.98
51603;BME280;37954;51.980;5.850;2023-04-07T04:58:27;101163.00;;;9.14;99.15
51603;BME280;37954;51.980;5.850;2023-04-07T05:02:40;101169.59;;;9.24;99.08
51603;BME280;37954;51.980;5.850;2023-04-07T05:06:54;101163.81;;;9.21;99.13
51603;BME280;37954;51.980;5.850;2023-04-07T05:11:10;101179.09;;;9.27;98.95
51603;BME280;37954;51.980;5.850;2023-04-07T05:15:23;101169.81;;;9.16;99.09
51603;BME280;37954;51.980;5.850;2023-04-07T05:19:35;101158.00;;;9.04;99.07
51603;BME280;37954;51.980;5.850;2023-04-07T05:23:55;101174.34;;;9.16;98.98
51603;BME280;37954;51.980;5.850;2023-04-07T05:28:07;101173.91;;;9.12;98.98
51603;BME280;37954;51.980;5.850;2023-04-07T05:32:19;101169.59;;;9.18;98.82
51603;BME280;37954;51.980;5.850;2023-04-07T05:36:32;101177.22;;;9.21;98.98
51603;BME280;37954;51.980;5.850;2023-04-07T05:40:44;101181.75;;;9.27;99.17
51603;BME280;37954;51.980;5.850;2023-04-07T05:45:04;101185.69;;;9.31;99.29
51603;BME280;37954;51.980;5.850;2023-04-07T05:49:18;101166.91;;;9.18;98.98
51603;BME280;37954;51.980;5.850;2023-04-07T05:53:37;101181.34;;;9.23;99.03
51603;BME280;37954;51.980;5.850;2023-04-07T05:57:49;101203.25;;;9.33;99.02
51603;BME280;37954;51.980;5.850;2023-04-07T06:02:04;101193.53;;;9.32;99.04
51603;BME280;37954;51.980;5.850;2023-04-07T06:06:16;101193.94;;;9.29;98.82
51603;BME280;37954;51.980;5.850;2023-04-07T06:10:29;101203.25;;;9.33;98.77
51603;BME280;37954;51.980;5.850;2023-04-07T06:14:41;101199.72;;;9.33;99.03
51603;BME280;37954;51.980;5.850;2023-04-07T06:18:53;101208.41;;;9.35;99.16
51603;BME280;37954;51.980;5.850;2023-04-07T06:23:04;101209.44;;;9.34;98.69
51603;BME280;37954;51.980;5.850;2023-04-07T06:27:17;101204.06;;;9.34;99.01
51603;BME280;37954;51.980;5.850;2023-04-07T06:31:31;101221.59;;;9.43;99.11
51603;BME280;37954;51.980;5.850;2023-04-07T06:35:43;101217.47;;;9.40;98.97
51603;BME280;37954;51.980;5.850;2023-04-07T06:39:56;101215.19;;;9.37;99.16
51603;BME280;37954;51.980;5.850;2023-04-07T06:44:11;101222.03;;;9.47;98.92
51603;BME280;37954;51.980;5.850;2023-04-07T06:48:22;101233.56;;;9.54;99.23
51603;BME280;37954;51.980;5.850;2023-04-07T06:52:34;101229.44;;;9.58;99.05
51603;BME280;37954;51.980;5.850;2023-04-07T06:56:46;101230.91;;;9.60;98.97
51603;BME280;37954;51.980;5.850;2023-04-07T07:00:57;101254.25;;;9.80;99.03
51603;BME280;37954;51.980;5.850;2023-04-07T07:05:09;101234.44;;;9.81;99.24
51603;BME280;37954;51.980;5.850;2023-04-07T07:09:21;101256.09;;;9.92;99.12
51603;BME280;37954;51.980;5.850;2023-04-07T07:13:33;101230.91;;;9.80;98.29
51603;BME280;37954;51.980;5.850;2023-04-07T07:17:46;101251.97;;;9.96;98.44
51603;BME280;37954;51.980;5.850;2023-04-07T07:21:58;101252.41;;;10.00;98.27
51603;BME280;37954;51.980;5.850;2023-04-07T07:26:09;101262.09;;;10.07;98.06
51603;BME280;37954;51.980;5.850;2023-04-07T07:30:22;101248.88;;;10.06;98.15
51603;BME280;37954;51.980;5.850;2023-04-07T07:34:34;101223.69;;;9.94;97.50
51603;BME280;37954;51.980;5.850;2023-04-07T07:38:46;101261.69;;;10.24;97.45
51603;BME280;37954;51.980;5.850;2023-04-07T07:42:58;101248.69;;;10.21;97.24
51603;BME280;37954;51.980;5.850;2023-04-07T07:47:10;101279.84;;;10.55;96.56
51603;BME280;37954;51.980;5.850;2023-04-07T07:51:22;101277.34;;;10.60;96.20
51603;BME280;37954;51.980;5.850;2023-04-07T07:55:34;101281.88;;;10.72;96.31
51603;BME280;37954;51.980;5.850;2023-04-07T07:59:46;101284.09;;;10.82;96.01
51603;BME280;37954;51.980;5.850;2023-04-07T08:03:57;101276.28;;;10.67;95.32
51603;BME280;37954;51.980;5.850;2023-04-07T08:08:09;101285.13;;;10.81;95.30
51603;BME280;37954;51.980;5.850;2023-04-07T08:12:21;101291.53;;;10.87;95.20
51603;BME280;37954;51.980;5.850;2023-04-07T08:16:33;101299.00;;;10.78;94.57
51603;BME280;37954;51.980;5.850;2023-04-07T08:20:45;101292.16;;;10.82;93.97
51603;BME280;37954;51.980;5.850;2023-04-07T08:24:57;101317.34;;;10.94;94.42
51603;BME280;37954;51.980;5.850;2023-04-07T08:29:08;101311.56;;;10.97;93.86
51603;BME280;37954;51.980;5.850;2023-04-07T08:33:21;101305.53;;;11.02;93.81
51603;BME280;37954;51.980;5.850;2023-04-07T08:37:33;101308.03;;;10.97;93.03
51603;BME280;37954;51.980;5.850;2023-04-07T08:41:45;101329.31;;;11.05;92.53
51603;BME280;37954;51.980;5.850;2023-04-07T08:45:59;101320.84;;;11.01;92.17
51603;BME280;37954;51.980;5.850;2023-04-07T08:50:15;101346.44;;;11.17;92.64
51603;BME280;37954;51.980;5.850;2023-04-07T08:54:27;101336.56;;;11.04;92.21
51603;BME280;37954;51.980;5.850;2023-04-07T08:58:40;101344.78;;;11.09;92.66
51603;BME280;37954;51.980;5.850;2023-04-07T09:02:51;101334.50;;;11.06;92.90
51603;BME280;37954;51.980;5.850;2023-04-07T09:07:03;101345.00;;;11.14;93.20
51603;BME280;37954;51.980;5.850;2023-04-07T09:11:15;101339.66;;;11.01;92.21
51603;BME280;37954;51.980;5.850;2023-04-07T09:15:30;101341.06;;;11.10;92.31
51603;BME280;37954;51.980;5.850;2023-04-07T09:19:42;101340.28;;;10.97;91.38
51603;BME280;37954;51.980;5.850;2023-04-07T09:23:54;101358.28;;;11.03;91.88
51603;BME280;37954;51.980;5.850;2023-04-07T09:28:06;101357.66;;;11.01;91.64
51603;BME280;37954;51.980;5.850;2023-04-07T09:32:34;101349.38;;;11.02;91.99
51603;BME280;37954;51.980;5.850;2023-04-07T09:36:49;101360.47;;;11.26;92.45
51603;BME280;37954;51.980;5.850;2023-04-07T09:41:05;101355.63;;;11.47;92.65
51603;BME280;37954;51.980;5.850;2023-04-07T09:45:25;101342.44;;;11.33;91.20
51603;BME280;37954;51.980;5.850;2023-04-07T09:49:50;101364.91;;;11.58;91.84
51603;BME280;37954;51.980;5.850;2023-04-07T09:54:05;101355.75;;;11.66;91.30
51603;BME280;37954;51.980;5.850;2023-04-07T09:58:18;101373.50;;;11.80;91.03
51603;BME280;37954;51.980;5.850;2023-04-07T10:02:30;101369.00;;;11.61;90.46
51603;BME280;37954;51.980;5.850;2023-04-07T10:06:43;101373.69;;;11.40;88.38
51603;BME280;37954;51.980;5.850;2023-04-07T10:10:55;101384.03;;;11.30;88.35
51603;BME280;37954;51.980;5.850;2023-04-07T10:15:09;101373.78;;;11.07;88.09
51603;BME280;37954;51.980;5.850;2023-04-07T10:19:23;101384.09;;;11.17;88.44
51603;BME280;37954;51.980;5.850;2023-04-07T10:28:07;101393.00;;;11.11;88.16
51603;BME280;37954;51.980;5.850;2023-04-07T10:32:19;101394.84;;;11.17;88.09
51603;BME280;37954;51.980;5.850;2023-04-07T10:36:31;101398.13;;;11.26;88.14
51603;BME280;37954;51.980;5.850;2023-04-07T10:40:44;101388.78;;;11.35;88.05
51603;BME280;37954;51.980;5.850;2023-04-07T10:44:55;101413.56;;;11.43;87.44
51603;BME280;37954;51.980;5.850;2023-04-07T10:49:08;101400.59;;;11.34;87.00
51603;BME280;37954;51.980;5.850;2023-04-07T10:53:20;101394.63;;;11.25;87.99
51603;BME280;37954;51.980;5.850;2023-04-07T10:57:32;101420.91;;;11.23;86.36
51603;BME280;37954;51.980;5.850;2023-04-07T11:01:44;101424.38;;;11.30;87.08
51603;BME280;37954;51.980;5.850;2023-04-07T11:10:15;101429.28;;;11.53;88.31
51603;BME280;37954;51.980;5.850;2023-04-07T11:14:30;101434.22;;;11.63;88.28
51603;BME280;37954;51.980;5.850;2023-04-07T11:18:44;101427.56;;;11.72;88.52
51603;BME280;37954;51.980;5.850;2023-04-07T11:22:59;101431.09;;;11.66;87.46
51603;BME280;37954;51.980;5.850;2023-04-07T11:27:12;101433.94;;;11.84;88.27
51603;BME280;37954;51.980;5.850;2023-04-07T11:31:24;101438.44;;;11.97;88.48
51603;BME280;37954;51.980;5.850;2023-04-07T11:35:36;101440.13;;;11.91;87.77
51603;BME280;37954;51.980;5.850;2023-04-07T11:39:56;101443.22;;;11.95;88.27
51603;BME280;37954;51.980;5.850;2023-04-07T11:44:10;101450.09;;;11.91;87.95
51603;BME280;37954;51.980;5.850;2023-04-07T11:48:30;101448.44;;;11.83;88.00
51603;BME280;37954;51.980;5.850;2023-04-07T11:52:43;101452.22;;;11.69;87.90
51603;BME280;37954;51.980;5.850;2023-04-07T11:56:55;101457.41;;;11.77;88.40
51603;BME280;37954;51.980;5.850;2023-04-07T12:01:06;101460.84;;;11.91;89.12
51603;BME280;37954;51.980;5.850;2023-04-07T12:05:21;101466.34;;;12.09;89.04
51603;BME280;37954;51.980;5.850;2023-04-07T12:09:35;101479.81;;;12.09;89.01
51603;BME280;37954;51.980;5.850;2023-04-07T12:13:47;101479.69;;;11.91;88.77
51603;BME280;37954;51.980;5.850;2023-04-07T12:17:59;101478.25;;;11.88;88.81
51603;BME280;37954;51.980;5.850;2023-04-07T12:22:11;101477.00;;;11.91;89.08
51603;BME280;37954;51.980;5.850;2023-04-07T12:26:23;101485.91;;;11.91;88.87
51603;BME280;37954;51.980;5.850;2023-04-07T12:30:35;101479.47;;;11.92;88.73
51603;BME280;37954;51.980;5.850;2023-04-07T12:34:47;101481.78;;;11.89;88.61
51603;BME280;37954;51.980;5.850;2023-04-07T12:38:58;101496.69;;;11.91;88.28
51603;BME280;37954;51.980;5.850;2023-04-07T12:43:10;101490.53;;;11.77;87.57
51603;BME280;37954;51.980;5.850;2023-04-07T12:47:22;101501.88;;;11.79;88.58
51603;BME280;37954;51.980;5.850;2023-04-07T12:51:34;101495.66;;;11.85;88.34
51603;BME280;37954;51.980;5.850;2023-04-07T12:55:46;101498.53;;;11.91;88.63
51603;BME280;37954;51.980;5.850;2023-04-07T13:00:00;101510.75;;;11.93;88.88
51603;BME280;37954;51.980;5.850;2023-04-07T13:04:12;101500.22;;;11.85;88.49
51603;BME280;37954;51.980;5.850;2023-04-07T13:08:24;101509.09;;;11.92;88.81
51603;BME280;37954;51.980;5.850;2023-04-07T13:12:37;101507.25;;;11.93;88.88
51603;BME280;37954;51.980;5.850;2023-04-07T13:16:50;101514.44;;;11.99;89.04
51603;BME280;37954;51.980;5.850;2023-04-07T13:21:02;101516.94;;;12.00;89.22
51603;BME280;37954;51.980;5.850;2023-04-07T13:25:33;101517.56;;;11.96;88.61
51603;BME280;37954;51.980;5.850;2023-04-07T13:29:45;101517.59;;;11.89;88.35
51603;BME280;37954;51.980;5.850;2023-04-07T13:33:57;101522.38;;;11.87;88.12
51603;BME280;37954;51.980;5.850;2023-04-07T13:38:08;101517.59;;;11.82;87.37
51603;BME280;37954;51.980;5.850;2023-04-07T13:42:20;101523.41;;;11.86;88.06
51603;BME280;37954;51.980;5.850;2023-04-07T13:46:32;101529.41;;;11.81;88.21
51603;BME280;37954;51.980;5.850;2023-04-07T13:50:44;101523.41;;;11.73;87.69
51603;BME280;37954;51.980;5.850;2023-04-07T13:54:55;101520.72;;;11.73;87.49
51603;BME280;37954;51.980;5.850;2023-04-07T13:59:07;101529.41;;;11.88;88.14
51603;BME280;37954;51.980;5.850;2023-04-07T14:03:19;101527.47;;;12.08;89.13
51603;BME280;37954;51.980;5.850;2023-04-07T14:07:31;101523.06;;;12.20;88.94
51603;BME280;37954;51.980;5.850;2023-04-07T14:11:42;101523.56;;;12.42;88.96
51603;BME280;37954;51.980;5.850;2023-04-07T14:15:54;101511.63;;;12.63;88.91
51603;BME280;37954;51.980;5.850;2023-04-07T14:20:06;101519.41;;;12.78;88.26
51603;BME280;37954;51.980;5.850;2023-04-07T14:24:19;101524.78;;;12.78;87.37
51603;BME280;37954;51.980;5.850;2023-04-07T14:28:30;101526.88;;;12.76;86.73
51603;BME280;37954;51.980;5.850;2023-04-07T14:32:42;101528.16;;;12.67;85.30
51603;BME280;37954;51.980;5.850;2023-04-07T14:36:54;101523.97;;;12.77;86.04
51603;BME280;37954;51.980;5.850;2023-04-07T14:41:06;101532.34;;;12.94;86.34
51603;BME280;37954;51.980;5.850;2023-04-07T14:45:21;101532.50;;;12.99;85.98
51603;BME280;37954;51.980;5.850;2023-04-07T14:49:33;101522.25;;;12.83;84.76
51603;BME280;37954;51.980;5.850;2023-04-07T14:53:45;101538.53;;;12.70;83.05
51603;BME280;37954;51.980;5.850;2023-04-07T14:57:57;101533.63;;;12.60;83.77
51603;BME280;37954;51.980;5.850;2023-04-07T15:02:09;101545.69;;;12.51;82.62
51603;BME280;37954;51.980;5.850;2023-04-07T15:06:20;101546.09;;;12.54;83.97
51603;BME280;37954;51.980;5.850;2023-04-07T15:10:33;101551.06;;;12.51;82.92
51603;BME280;37954;51.980;5.850;2023-04-07T15:14:45;101542.56;;;12.54;84.06
51603;BME280;37954;51.980;5.850;2023-04-07T15:19:00;101544.44;;;12.53;83.72
51603;BME280;37954;51.980;5.850;2023-04-07T15:23:12;101549.03;;;12.46;82.05
51603;BME280;37954;51.980;5.850;2023-04-07T15:27:25;101554.78;;;12.57;82.87
51603;BME280;37954;51.980;5.850;2023-04-07T15:31:36;101550.75;;;12.72;83.73
51603;BME280;37954;51.980;5.850;2023-04-07T15:35:48;101554.28;;;12.73;83.77
51603;BME280;37954;51.980;5.850;2023-04-07T15:40:00;101554.56;;;12.58;81.04
51603;BME280;37954;51.980;5.850;2023-04-07T15:44:16;101556.88;;;12.48;81.28
51603;BME280;37954;51.980;5.850;2023-04-07T15:48:31;101552.81;;;12.39;81.05
51603;BME280;37954;51.980;5.850;2023-04-07T15:52:42;101560.75;;;12.27;80.27
51603;BME280;37954;51.980;5.850;2023-04-07T15:56:54;101556.81;;;12.23;81.03
51603;BME280;37954;51.980;5.850;2023-04-07T16:01:06;101561.03;;;12.06;81.21
51603;BME280;37954;51.980;5.850;2023-04-07T16:05:18;101565.81;;;11.97;80.71
51603;BME280;37954;51.980;5.850;2023-04-07T16:09:30;101578.03;;;12.00;81.76
51603;BME280;37954;51.980;5.850;2023-04-07T16:13:41;101575.75;;;12.03;82.14
51603;BME280;37954;51.980;5.850;2023-04-07T16:17:53;101584.66;;;12.04;82.54
51603;BME280;37954;51.980;5.850;2023-04-07T16:22:04;101590.47;;;12.01;82.55
51603;BME280;37954;51.980;5.850;2023-04-07T16:26:16;101592.94;;;11.96;82.72
51603;BME280;37954;51.980;5.850;2023-04-07T16:30:28;101596.31;;;11.78;81.90
51603;BME280;37954;51.980;5.850;2023-04-07T16:34:39;101593.81;;;11.70;82.35
51603;BME280;37954;51.980;5.850;2023-04-07T16:38:51;101586.97;;;11.61;83.42
51603;BME280;37954;51.980;5.850;2023-04-07T16:43:02;101602.09;;;11.62;83.38
51603;BME280;37954;51.980;5.850;2023-04-07T16:47:14;101597.56;;;11.56;83.85
51603;BME280;37954;51.980;5.850;2023-04-07T16:51:26;101598.59;;;11.55;84.11
51603;BME280;37954;51.980;5.850;2023-04-07T16:55:38;101603.34;;;11.52;84.25
51603;BME280;37954;51.980;5.850;2023-04-07T16:59:50;101609.78;;;11.58;84.73
51603;BME280;37954;51.980;5.850;2023-04-07T17:04:01;101612.88;;;11.55;84.42
51603;BME280;37954;51.980;5.850;2023-04-07T17:08:13;101617.84;;;11.51;84.40
51603;BME280;37954;51.980;5.850;2023-04-07T17:12:25;101617.84;;;11.51;84.42
51603;BME280;37954;51.980;5.850;2023-04-07T17:16:36;101600.28;;;11.42;85.27
51603;BME280;37954;51.980;5.850;2023-04-07T17:20:48;101624.88;;;11.52;85.52
51603;BME280;37954;51.980;5.850;2023-04-07T17:25:00;101629.44;;;11.52;85.57
51603;BME280;37954;51.980;5.850;2023-04-07T17:29:14;101633.38;;;11.49;85.87
51603;BME280;37954;51.980;5.850;2023-04-07T17:33:27;101641.03;;;11.52;86.19
51603;BME280;37954;51.980;5.850;2023-04-07T17:37:41;101649.09;;;11.52;86.10
51603;BME280;37954;51.980;5.850;2023-04-07T17:41:52;101659.22;;;11.44;85.92
51603;BME280;37954;51.980;5.850;2023-04-07T17:46:04;101656.75;;;11.29;85.69
51603;BME280;37954;51.980;5.850;2023-04-07T17:50:16;101677.84;;;11.26;85.95
51603;BME280;37954;51.980;5.850;2023-04-07T17:54:27;101680.31;;;11.21;86.23
51603;BME280;37954;51.980;5.850;2023-04-07T17:58:39;101675.97;;;11.20;86.36
51603;BME280;37954;51.980;5.850;2023-04-07T18:02:52;101688.41;;;11.21;87.04
51603;BME280;37954;51.980;5.850;2023-04-07T18:07:05;101692.31;;;11.18;87.30
51603;BME280;37954;51.980;5.850;2023-04-07T18:11:17;101690.63;;;11.10;87.80
51603;BME280;37954;51.980;5.850;2023-04-07T18:15:29;101699.94;;;11.01;87.86
51603;BME280;37954;51.980;5.850;2023-04-07T18:19:40;101698.66;;;10.91;88.46
51603;BME280;37954;51.980;5.850;2023-04-07T18:23:52;101706.69;;;10.84;88.71
51603;BME280;37954;51.980;5.850;2023-04-07T18:28:03;101709.97;;;10.79;89.32
51603;BME280;37954;51.980;5.850;2023-04-07T18:32:15;101714.75;;;10.84;89.91
51603;BME280;37954;51.980;5.850;2023-04-07T18:36:26;101716.78;;;10.75;90.14
51603;BME280;37954;51.980;5.850;2023-04-07T18:40:38;101717.81;;;10.74;90.45
51603;BME280;37954;51.980;5.850;2023-04-07T18:44:50;101720.28;;;10.76;90.62
51603;BME280;37954;51.980;5.850;2023-04-07T18:49:02;101722.56;;;10.72;90.74
51603;BME280;37954;51.980;5.850;2023-04-07T18:53:14;101741.59;;;10.77;91.00
51603;BME280;37954;51.980;5.850;2023-04-07T18:57:26;101747.78;;;10.71;91.19
51603;BME280;37954;51.980;5.850;2023-04-07T19:01:38;101747.34;;;10.68;91.22
51603;BME280;37954;51.980;5.850;2023-04-07T19:05:52;101763.47;;;10.68;91.43
51603;BME280;37954;51.980;5.850;2023-04-07T19:10:06;101767.19;;;10.67;91.87
51603;BME280;37954;51.980;5.850;2023-04-07T19:14:18;101774.66;;;10.71;91.75
51603;BME280;37954;51.980;5.850;2023-04-07T19:18:29;101771.97;;;10.71;92.17
51603;BME280;37954;51.980;5.850;2023-04-07T19:22:42;101781.28;;;10.75;92.20
51603;BME280;37954;51.980;5.850;2023-04-07T19:26:54;101779.63;;;10.74;92.28
51603;BME280;37954;51.980;5.850;2023-04-07T19:31:07;101788.31;;;10.76;92.26
51603;BME280;37954;51.980;5.850;2023-04-07T19:35:19;101788.72;;;10.73;92.39
51603;BME280;37954;51.980;5.850;2023-04-07T19:39:31;101792.44;;;10.72;92.55
51603;BME280;37954;51.980;5.850;2023-04-07T19:43:43;101798.03;;;10.71;92.69
51603;BME280;37954;51.980;5.850;2023-04-07T19:47:54;101802.75;;;10.69;92.56
51603;BME280;37954;51.980;5.850;2023-04-07T19:52:07;101777.22;;;10.52;92.67
51603;BME280;37954;51.980;5.850;2023-04-07T19:56:18;101797.97;;;10.64;93.02
51603;BME280;37954;51.980;5.850;2023-04-07T20:00:33;101807.25;;;10.62;93.03
51603;BME280;37954;51.980;5.850;2023-04-07T20:04:45;101779.41;;;10.35;92.65
51603;BME280;37954;51.980;5.850;2023-04-07T20:08:57;101814.59;;;10.46;92.61
51603;BME280;37954;51.980;5.850;2023-04-07T20:13:09;101818.47;;;10.37;92.69
51603;BME280;37954;51.980;5.850;2023-04-07T20:17:21;101808.25;;;10.26;92.82
51603;BME280;37954;51.980;5.850;2023-04-07T20:21:33;101814.63;;;10.25;92.84
51603;BME280;37954;51.980;5.850;2023-04-07T20:25:45;101809.88;;;10.21;92.96
51603;BME280;37954;51.980;5.850;2023-04-07T20:29:57;101818.13;;;10.19;92.87
51603;BME280;37954;51.980;5.850;2023-04-07T20:34:08;101816.81;;;10.15;93.09
51603;BME280;37954;51.980;5.850;2023-04-07T20:38:20;101818.41;;;10.09;92.98
51603;BME280;37954;51.980;5.850;2023-04-07T20:42:31;101808.31;;;9.90;93.25
51603;BME280;37954;51.980;5.850;2023-04-07T20:46:43;101819.88;;;9.91;93.31
51603;BME280;37954;51.980;5.850;2023-04-07T20:50:56;101824.59;;;9.89;93.32
51603;BME280;37954;51.980;5.850;2023-04-07T20:55:08;101824.94;;;9.79;93.48
51603;BME280;37954;51.980;5.850;2023-04-07T20:59:21;101846.03;;;9.82;93.25
51603;BME280;37954;51.980;5.850;2023-04-07T21:03:32;101844.47;;;9.73;93.46
51603;BME280;37954;51.980;5.850;2023-04-07T21:07:46;101823.84;;;9.52;93.33
51603;BME280;37954;51.980;5.850;2023-04-07T21:11:57;101826.91;;;9.49;93.10
51603;BME280;37954;51.980;5.850;2023-04-07T21:16:10;101837.53;;;9.42;92.99
51603;BME280;37954;51.980;5.850;2023-04-07T21:20:22;101844.94;;;9.40;92.99
51603;BME280;37954;51.980;5.850;2023-04-07T21:24:33;101844.88;;;9.34;93.20
51603;BME280;37954;51.980;5.850;2023-04-07T21:28:45;101850.03;;;9.35;93.20
51603;BME280;37954;51.980;5.850;2023-04-07T21:32:56;101848.00;;;9.37;93.43
51603;BME280;37954;51.980;5.850;2023-04-07T21:37:08;101856.03;;;9.37;93.78
51603;BME280;37954;51.980;5.850;2023-04-07T21:41:19;101857.50;;;9.40;94.17
51603;BME280;37954;51.980;5.850;2023-04-07T21:45:31;101863.34;;;9.43;93.95
51603;BME280;37954;51.980;5.850;2023-04-07T21:49:43;101856.13;;;9.44;94.18
51603;BME280;37954;51.980;5.850;2023-04-07T21:53:55;101838.69;;;9.33;94.50
51603;BME280;37954;51.980;5.850;2023-04-07T21:58:07;101837.38;;;9.29;94.80
51603;BME280;37954;51.980;5.850;2023-04-07T22:02:18;101858.47;;;9.32;94.89
51603;BME280;37954;51.980;5.850;2023-04-07T22:06:30;101857.19;;;9.28;94.68
51603;BME280;37954;51.980;5.850;2023-04-07T22:10:42;101867.91;;;9.28;95.08
51603;BME280;37954;51.980;5.850;2023-04-07T22:14:54;101870.94;;;9.25;95.14
51603;BME280;37954;51.980;5.850;2023-04-07T22:19:06;101874.28;;;9.27;94.88
51603;BME280;37954;51.980;5.850;2023-04-07T22:23:17;101838.88;;;9.02;95.35
51603;BME280;37954;51.980;5.850;2023-04-07T22:27:29;101862.09;;;9.10;95.46
51603;BME280;37954;51.980;5.850;2023-04-07T22:31:41;101881.97;;;9.16;95.35